sensor_id;sensor_type;location;lat;lon;timestamp;temperature;humidity
14014;DHT22;49110;52.584;13.408;2023-09-19T00:00:56;21.00;99.90
14014;DHT22;49110;52.584;13.408;2023-09-19T00:01:57;20.90;99.90
14014;DHT22;49110;52.584;13.408;2023-09-19T00:02:58;20.90;99.90
14014;DHT22;49110;52.584;13.408;2023-09-19T00:04:02;20.90;99.90
14014;DHT22;49110;52.584;13.408;2023-09-19T00:05:03;20.90;99.90
14014;DHT22;49110;52.584;13.408;2023-09-19T00:06:05;20.90;99.90
14014;DHT22;49110;52.584;13.408;2023-09-19T00:07:08;20.80;99.90
14014;DHT22;49110;52.584;13.408;2023-09-19T00:08:09;20.80;99.90
14014;DHT22;49110;52.584;13.408;2023-09-19T00:09:09;20.80;99.90
14014;DHT22;49110;52.584;13.408;2023-09-19T00:10:11;20.80;99.90
14014;DHT22;49110;52.584;13.408;2023-09-19T00:11:11;20.80;99.90
14014;DHT22;49110;52.584;13.408;2023-09-19T00:12:12;20.80;99.90
14014;DHT22;49110;52.584;13.408;2023-09-19T00:13:13;20.90;99.90
14014;DHT22;49110;52.584;13.408;2023-09-19T00:14:14;20.80;99.90
14014;DHT22;49110;52.584;13.408;2023-09-19T00:15:15;20.80;99.90
14014;DHT22;49110;52.584;13.408;2023-09-19T00:16:18;20.80;99.90
14014;DHT22;49110;52.584;13.408;2023-09-19T00:17:19;20.80;99.90
14014;DHT22;49110;52.584;13.408;2023-09-19T00:18:20;20.80;99.90
14014;DHT22;49110;52.584;13.408;2023-09-19T00:19:21;20.70;99.90
14014;DHT22;49110;52.584;13.408;2023-09-19T00:20:23;20.70;99.90
14014;DHT22;49110;52.584;13.408;2023-09-19T00:21:24;20.70;99.90
14014;DHT22;49110;52.584;13.408;2023-09-19T00:22:25;20.80;99.90
14014;DHT22;49110;52.584;13.408;2023-09-19T00:23:27;20.80;99.90
14014;DHT22;49110;52.584;13.408;2023-09-19T00:24:28;20.80;99.90
14014;DHT22;49110;52.584;13.408;2023-09-19T00:25:29;20.80;99.90
14014;DHT22;49110;52.584;13.408;2023-09-19T00:26:30;20.80;99.90
14014;DHT22;49110;52.584;13.408;2023-09-19T00:27:31;20.80;99.90
14014;DHT22;49110;52.584;13.408;2023-09-19T00:28:33;20.80;99.90
14014;DHT22;49110;52.584;13.408;2023-09-19T00:29:35;20.80;99.90
14014;DHT22;49110;52.584;13.408;2023-09-19T00:30:36;20.70;99.90
14014;DHT22;49110;52.584;13.408;2023-09-19T00:31:38;20.80;99.90
14014;DHT22;49110;52.584;13.408;2023-09-19T00:32:40;20.70;99.90
14014;DHT22;49110;52.584;13.408;2023-09-19T00:33:41;20.70;99.90
14014;DHT22;49110;52.584;13.408;2023-09-19T00:34:43;20.70;99.90
14014;DHT22;49110;52.584;13.408;2023-09-19T00:35:48;20.70;99.90
14014;DHT22;49110;52.584;13.408;2023-09-19T00:36:48;20.70;99.90
14014;DHT22;49110;52.584;13.408;2023-09-19T00:37:49;20.70;99.90
14014;DHT22;49110;52.584;13.408;2023-09-19T00:38:49;20.70;99.90
14014;DHT22;49110;52.584;13.408;2023-09-19T00:39:50;20.70;99.90
14014;DHT22;49110;52.584;13.408;2023-09-19T00:40:50;20.70;99.90
14014;DHT22;49110;52.584;13.408;2023-09-19T00:41:54;20.70;99.90
14014;DHT22;49110;52.584;13.408;2023-09-19T00:42:57;20.70;99.90
14014;DHT22;49110;52.584;13.408;2023-09-19T00:44:00;20.70;99.90
14014;DHT22;49110;52.584;13.408;2023-09-19T00:45:02;20.70;99.90
14014;DHT22;49110;52.584;13.408;2023-09-19T00:46:03;20.60;99.90
14014;DHT22;49110;52.584;13.408;2023-09-19T00:47:06;20.60;99.90
14014;DHT22;49110;52.584;13.408;2023-09-19T00:48:06;20.60;99.90
14014;DHT22;49110;52.584;13.408;2023-09-19T00:49:09;20.60;99.90
14014;DHT22;49110;52.584;13.408;2023-09-19T00:50:10;20.70;99.90
14014;DHT22;49110;52.584;13.408;2023-09-19T00:51:11;20.70;99.90
14014;DHT22;49110;52.584;13.408;2023-09-19T00:52:13;20.70;99.90
14014;DHT22;49110;52.584;13.408;2023-09-19T00:53:17;20.70;99.90
14014;DHT22;49110;52.584;13.408;2023-09-19T00:54:19;20.70;99.90
14014;DHT22;49110;52.584;13.408;2023-09-19T00:55:19;20.60;99.90
14014;DHT22;49110;52.584;13.408;2023-09-19T00:56:20;20.60;99.90
14014;DHT22;49110;52.584;13.408;2023-09-19T00:57:21;20.60;99.90
14014;DHT22;49110;52.584;13.408;2023-09-19T00:58:22;20.60;99.90
14014;DHT22;49110;52.584;13.408;2023-09-19T00:59:23;20.60;99.90
14014;DHT22;49110;52.584;13.408;2023-09-19T01:00:24;20.60;99.90
14014;DHT22;49110;52.584;13.408;2023-09-19T01:01:25;20.60;99.90
14014;DHT22;49110;52.584;13.408;2023-09-19T01:02:26;20.60;99.90
14014;DHT22;49110;52.584;13.408;2023-09-19T01:03:28;20.60;99.90
14014;DHT22;49110;52.584;13.408;2023-09-19T01:04:29;20.60;99.90
14014;DHT22;49110;52.584;13.408;2023-09-19T01:05:31;20.60;99.90
14014;DHT22;49110;52.584;13.408;2023-09-19T01:06:31;20.60;99.90
14014;DHT22;49110;52.584;13.408;2023-09-19T01:07:32;20.60;99.90
14014;DHT22;49110;52.584;13.408;2023-09-19T01:08:36;20.60;99.90
14014;DHT22;49110;52.584;13.408;2023-09-19T01:09:37;20.60;99.90
14014;DHT22;49110;52.584;13.408;2023-09-19T01:10:46;20.60;99.90
14014;DHT22;49110;52.584;13.408;2023-09-19T01:11:51;20.60;99.90
14014;DHT22;49110;52.584;13.408;2023-09-19T01:13:13;20.60;99.90
14014;DHT22;49110;52.584;13.408;2023-09-19T01:14:38;20.50;99.90
14014;DHT22;49110;52.584;13.408;2023-09-19T01:15:55;20.50;99.90
14014;DHT22;49110;52.584;13.408;2023-09-19T01:17:29;20.50;99.90
14014;DHT22;49110;52.584;13.408;2023-09-19T01:19:11;20.50;99.90
14014;DHT22;49110;52.584;13.408;2023-09-19T01:20:27;20.40;99.90
14014;DHT22;49110;52.584;13.408;2023-09-19T01:21:39;20.40;99.90
14014;DHT22;49110;52.584;13.408;2023-09-19T01:24:28;20.50;99.90
14014;DHT22;49110;52.584;13.408;2023-09-19T01:25:50;20.50;99.90
14014;DHT22;49110;52.584;13.408;2023-09-19T01:28:20;20.50;99.90
14014;DHT22;49110;52.584;13.408;2023-09-19T01:29:42;20.50;99.90
14014;DHT22;49110;52.584;13.408;2023-09-19T01:30:44;20.50;99.90
14014;DHT22;49110;52.584;13.408;2023-09-19T01:31:47;20.40;99.90
14014;DHT22;49110;52.584;13.408;2023-09-19T01:32:52;20.40;99.90
14014;DHT22;49110;52.584;13.408;2023-09-19T01:33:56;20.50;99.90
14014;DHT22;49110;52.584;13.408;2023-09-19T01:34:59;20.50;99.90
14014;DHT22;49110;52.584;13.408;2023-09-19T01:36:06;20.50;99.90
14014;DHT22;49110;52.584;13.408;2023-09-19T01:37:08;20.50;99.90
14014;DHT22;49110;52.584;13.408;2023-09-19T01:38:08;20.50;99.90
14014;DHT22;49110;52.584;13.408;2023-09-19T01:39:13;20.50;99.90
14014;DHT22;49110;52.584;13.408;2023-09-19T01:40:18;20.50;99.90
14014;DHT22;49110;52.584;13.408;2023-09-19T01:41:38;20.60;99.90
14014;DHT22;49110;52.584;13.408;2023-09-19T01:42:53;20.60;99.90
14014;DHT22;49110;52.584;13.408;2023-09-19T01:43:56;20.50;99.90
14014;DHT22;49110;52.584;13.408;2023-09-19T01:45:34;20.50;99.90
14014;DHT22;49110;52.584;13.408;2023-09-19T01:46:40;20.50;99.90
14014;DHT22;49110;52.584;13.408;2023-09-19T01:47:48;20.50;99.90
14014;DHT22;49110;52.584;13.408;2023-09-19T01:49:18;20.50;99.90
14014;DHT22;49110;52.584;13.408;2023-09-19T01:50:31;20.60;99.90
14014;DHT22;49110;52.584;13.408;2023-09-19T01:51:37;20.60;99.90
14014;DHT22;49110;52.584;13.408;2023-09-19T01:52:47;20.60;99.90
14014;DHT22;49110;52.584;13.408;2023-09-19T01:53:53;20.60;99.90
14014;DHT22;49110;52.584;13.408;2023-09-19T01:55:02;20.50;99.90
14014;DHT22;49110;52.584;13.408;2023-09-19T01:56:08;20.60;99.90
14014;DHT22;49110;52.584;13.408;2023-09-19T01:57:30;20.60;99.90
14014;DHT22;49110;52.584;13.408;2023-09-19T01:58:37;20.50;99.90
14014;DHT22;49110;52.584;13.408;2023-09-19T01:59:45;20.50;99.90
14014;DHT22;49110;52.584;13.408;2023-09-19T02:00:48;20.50;99.90
14014;DHT22;49110;52.584;13.408;2023-09-19T02:01:52;20.50;99.90
14014;DHT22;49110;52.584;13.408;2023-09-19T02:02:54;20.50;99.90
14014;DHT22;49110;52.584;13.408;2023-09-19T02:03:58;20.50;99.90
14014;DHT22;49110;52.584;13.408;2023-09-19T02:04:59;20.50;99.90
14014;DHT22;49110;52.584;13.408;2023-09-19T02:06:00;20.50;99.90
14014;DHT22;49110;52.584;13.408;2023-09-19T02:07:01;20.50;99.90
14014;DHT22;49110;52.584;13.408;2023-09-19T02:08:03;20.50;99.90
14014;DHT22;49110;52.584;13.408;2023-09-19T02:09:04;20.50;99.90
14014;DHT22;49110;52.584;13.408;2023-09-19T02:10:07;20.50;99.90
14014;DHT22;49110;52.584;13.408;2023-09-19T02:11:11;20.50;99.90
14014;DHT22;49110;52.584;13.408;2023-09-19T02:12:11;20.50;99.90
14014;DHT22;49110;52.584;13.408;2023-09-19T02:13:12;20.40;99.90
14014;DHT22;49110;52.584;13.408;2023-09-19T02:14:12;20.50;99.90
14014;DHT22;49110;52.584;13.408;2023-09-19T02:15:14;20.50;99.90
14014;DHT22;49110;52.584;13.408;2023-09-19T02:16:16;20.40;99.90
14014;DHT22;49110;52.584;13.408;2023-09-19T02:17:17;20.40;99.90
14014;DHT22;49110;52.584;13.408;2023-09-19T02:18:17;20.40;99.90
14014;DHT22;49110;52.584;13.408;2023-09-19T02:19:18;20.40;99.90
14014;DHT22;49110;52.584;13.408;2023-09-19T02:20:19;20.40;99.90
14014;DHT22;49110;52.584;13.408;2023-09-19T02:21:20;20.40;99.90
14014;DHT22;49110;52.584;13.408;2023-09-19T02:22:22;20.40;99.90
14014;DHT22;49110;52.584;13.408;2023-09-19T02:23:23;20.40;99.90
14014;DHT22;49110;52.584;13.408;2023-09-19T02:24:23;20.40;99.90
14014;DHT22;49110;52.584;13.408;2023-09-19T02:25:24;20.40;99.90
14014;DHT22;49110;52.584;13.408;2023-09-19T02:26:27;20.40;99.90
14014;DHT22;49110;52.584;13.408;2023-09-19T02:27:27;20.40;99.90
14014;DHT22;49110;52.584;13.408;2023-09-19T02:28:28;20.40;99.90
14014;DHT22;49110;52.584;13.408;2023-09-19T02:29:32;20.40;99.90
14014;DHT22;49110;52.584;13.408;2023-09-19T02:30:34;20.40;99.90
14014;DHT22;49110;52.584;13.408;2023-09-19T02:31:36;20.40;99.90
14014;DHT22;49110;52.584;13.408;2023-09-19T02:32:37;20.40;99.90
14014;DHT22;49110;52.584;13.408;2023-09-19T02:33:38;20.40;99.90
14014;DHT22;49110;52.584;13.408;2023-09-19T02:34:39;20.40;99.90
14014;DHT22;49110;52.584;13.408;2023-09-19T02:35:40;20.40;99.90
14014;DHT22;49110;52.584;13.408;2023-09-19T02:36:40;20.40;99.90
14014;DHT22;49110;52.584;13.408;2023-09-19T02:37:41;20.40;99.90
14014;DHT22;49110;52.584;13.408;2023-09-19T02:38:41;20.30;99.90
14014;DHT22;49110;52.584;13.408;2023-09-19T02:39:42;20.40;99.90
14014;DHT22;49110;52.584;13.408;2023-09-19T02:40:43;20.40;99.90
14014;DHT22;49110;52.584;13.408;2023-09-19T02:41:43;20.40;99.90
14014;DHT22;49110;52.584;13.408;2023-09-19T02:42:47;20.30;99.90
14014;DHT22;49110;52.584;13.408;2023-09-19T02:43:49;20.30;99.90
14014;DHT22;49110;52.584;13.408;2023-09-19T02:44:50;20.30;99.90
14014;DHT22;49110;52.584;13.408;2023-09-19T02:45:50;20.30;99.90
14014;DHT22;49110;52.584;13.408;2023-09-19T02:46:51;20.30;99.90
14014;DHT22;49110;52.584;13.408;2023-09-19T02:47:51;20.30;99.90
14014;DHT22;49110;52.584;13.408;2023-09-19T02:48:52;20.30;99.90
14014;DHT22;49110;52.584;13.408;2023-09-19T02:49:52;20.30;99.90
14014;DHT22;49110;52.584;13.408;2023-09-19T02:50:53;20.30;99.90
14014;DHT22;49110;52.584;13.408;2023-09-19T02:51:53;20.30;99.90
14014;DHT22;49110;52.584;13.408;2023-09-19T02:52:54;20.30;99.90
14014;DHT22;49110;52.584;13.408;2023-09-19T02:53:54;20.30;99.90
14014;DHT22;49110;52.584;13.408;2023-09-19T02:54:55;20.30;99.90
14014;DHT22;49110;52.584;13.408;2023-09-19T02:55:55;20.30;99.90
14014;DHT22;49110;52.584;13.408;2023-09-19T02:56:55;20.30;99.90
14014;DHT22;49110;52.584;13.408;2023-09-19T02:57:56;20.30;99.90
14014;DHT22;49110;52.584;13.408;2023-09-19T02:58:56;20.30;99.90
14014;DHT22;49110;52.584;13.408;2023-09-19T02:59:58;20.30;99.90
14014;DHT22;49110;52.584;13.408;2023-09-19T03:00:58;20.20;99.90
14014;DHT22;49110;52.584;13.408;2023-09-19T03:01:59;20.20;99.90
14014;DHT22;49110;52.584;13.408;2023-09-19T03:03:01;20.20;99.90
14014;DHT22;49110;52.584;13.408;2023-09-19T03:04:02;20.20;99.90
14014;DHT22;49110;52.584;13.408;2023-09-19T03:05:03;20.30;99.90
14014;DHT22;49110;52.584;13.408;2023-09-19T03:06:04;20.30;99.90
14014;DHT22;49110;52.584;13.408;2023-09-19T03:07:04;20.20;99.90
14014;DHT22;49110;52.584;13.408;2023-09-19T03:08:06;20.20;99.90
14014;DHT22;49110;52.584;13.408;2023-09-19T03:09:06;20.30;99.90
14014;DHT22;49110;52.584;13.408;2023-09-19T03:10:13;20.20;99.90
14014;DHT22;49110;52.584;13.408;2023-09-19T03:11:16;20.20;99.90
14014;DHT22;49110;52.584;13.408;2023-09-19T03:12:19;20.20;99.90
14014;DHT22;49110;52.584;13.408;2023-09-19T03:13:19;20.20;99.90
14014;DHT22;49110;52.584;13.408;2023-09-19T03:14:20;20.20;99.90
14014;DHT22;49110;52.584;13.408;2023-09-19T03:15:21;20.20;99.90
14014;DHT22;49110;52.584;13.408;2023-09-19T03:16:22;20.20;99.90
14014;DHT22;49110;52.584;13.408;2023-09-19T03:17:23;20.20;99.90
14014;DHT22;49110;52.584;13.408;2023-09-19T03:18:24;20.20;99.90
14014;DHT22;49110;52.584;13.408;2023-09-19T03:19:26;20.20;99.90
14014;DHT22;49110;52.584;13.408;2023-09-19T03:20:28;20.20;99.90
14014;DHT22;49110;52.584;13.408;2023-09-19T03:21:28;20.20;99.90
14014;DHT22;49110;52.584;13.408;2023-09-19T03:22:30;20.20;99.90
14014;DHT22;49110;52.584;13.408;2023-09-19T03:23:30;20.20;99.90
14014;DHT22;49110;52.584;13.408;2023-09-19T03:24:31;20.20;99.90
14014;DHT22;49110;52.584;13.408;2023-09-19T03:25:36;20.20;99.90
14014;DHT22;49110;52.584;13.408;2023-09-19T03:26:37;20.20;99.90
14014;DHT22;49110;52.584;13.408;2023-09-19T03:27:39;20.20;99.90
14014;DHT22;49110;52.584;13.408;2023-09-19T03:28:39;20.20;99.90
14014;DHT22;49110;52.584;13.408;2023-09-19T03:29:40;20.10;99.90
14014;DHT22;49110;52.584;13.408;2023-09-19T03:30:40;20.10;99.90
14014;DHT22;49110;52.584;13.408;2023-09-19T03:31:41;20.10;99.90
14014;DHT22;49110;52.584;13.408;2023-09-19T03:32:46;20.20;99.90
14014;DHT22;49110;52.584;13.408;2023-09-19T03:33:47;20.10;99.90
14014;DHT22;49110;52.584;13.408;2023-09-19T03:34:47;20.10;99.90
14014;DHT22;49110;52.584;13.408;2023-09-19T03:35:52;20.10;99.90
14014;DHT22;49110;52.584;13.408;2023-09-19T03:36:53;20.10;99.90
14014;DHT22;49110;52.584;13.408;2023-09-19T03:37:54;20.10;99.90
14014;DHT22;49110;52.584;13.408;2023-09-19T03:38:54;20.10;99.90
14014;DHT22;49110;52.584;13.408;2023-09-19T03:39:55;20.00;99.90
14014;DHT22;49110;52.584;13.408;2023-09-19T03:40:55;20.10;99.90
14014;DHT22;49110;52.584;13.408;2023-09-19T03:41:56;20.10;99.90
14014;DHT22;49110;52.584;13.408;2023-09-19T03:43:00;20.10;99.90
14014;DHT22;49110;52.584;13.408;2023-09-19T03:44:01;20.10;99.90
14014;DHT22;49110;52.584;13.408;2023-09-19T03:45:02;20.00;99.90
14014;DHT22;49110;52.584;13.408;2023-09-19T03:46:05;20.00;99.90
14014;DHT22;49110;52.584;13.408;2023-09-19T03:47:07;20.10;99.90
14014;DHT22;49110;52.584;13.408;2023-09-19T03:48:11;20.10;99.90
14014;DHT22;49110;52.584;13.408;2023-09-19T03:49:12;20.00;99.90
14014;DHT22;49110;52.584;13.408;2023-09-19T03:50:12;20.00;99.90
14014;DHT22;49110;52.584;13.408;2023-09-19T03:51:15;20.10;99.90
14014;DHT22;49110;52.584;13.408;2023-09-19T03:52:16;20.00;99.90
14014;DHT22;49110;52.584;13.408;2023-09-19T03:53:16;20.00;99.90
14014;DHT22;49110;52.584;13.408;2023-09-19T03:54:17;20.00;99.90
14014;DHT22;49110;52.584;13.408;2023-09-19T03:55:19;19.90;99.90
14014;DHT22;49110;52.584;13.408;2023-09-19T03:56:20;20.00;99.90
14014;DHT22;49110;52.584;13.408;2023-09-19T03:57:20;19.90;99.90
14014;DHT22;49110;52.584;13.408;2023-09-19T03:58:21;19.90;99.90
14014;DHT22;49110;52.584;13.408;2023-09-19T03:59:21;19.90;99.90
14014;DHT22;49110;52.584;13.408;2023-09-19T04:00:22;19.90;99.90
14014;DHT22;49110;52.584;13.408;2023-09-19T04:01:24;19.90;99.90
14014;DHT22;49110;52.584;13.408;2023-09-19T04:02:25;19.90;99.90
14014;DHT22;49110;52.584;13.408;2023-09-19T04:03:25;19.90;99.90
14014;DHT22;49110;52.584;13.408;2023-09-19T04:04:34;19.90;99.90
14014;DHT22;49110;52.584;13.408;2023-09-19T04:05:35;19.90;99.90
14014;DHT22;49110;52.584;13.408;2023-09-19T04:06:35;19.90;99.90
14014;DHT22;49110;52.584;13.408;2023-09-19T04:07:36;19.90;99.90
14014;DHT22;49110;52.584;13.408;2023-09-19T04:08:36;19.90;99.90
14014;DHT22;49110;52.584;13.408;2023-09-19T04:09:37;19.80;99.90
14014;DHT22;49110;52.584;13.408;2023-09-19T04:10:37;19.90;99.90
14014;DHT22;49110;52.584;13.408;2023-09-19T04:11:38;19.90;99.90
14014;DHT22;49110;52.584;13.408;2023-09-19T04:12:38;19.90;99.90
14014;DHT22;49110;52.584;13.408;2023-09-19T04:13:39;19.90;99.90
14014;DHT22;49110;52.584;13.408;2023-09-19T04:14:39;19.90;99.90
14014;DHT22;49110;52.584;13.408;2023-09-19T04:15:40;19.90;99.90
14014;DHT22;49110;52.584;13.408;2023-09-19T04:16:41;19.90;99.90
14014;DHT22;49110;52.584;13.408;2023-09-19T04:17:41;19.90;99.90
14014;DHT22;49110;52.584;13.408;2023-09-19T04:18:42;19.90;99.90
14014;DHT22;49110;52.584;13.408;2023-09-19T04:19:42;19.90;99.90
14014;DHT22;49110;52.584;13.408;2023-09-19T04:20:50;19.90;99.90
14014;DHT22;49110;52.584;13.408;2023-09-19T04:21:51;19.90;99.90
14014;DHT22;49110;52.584;13.408;2023-09-19T04:22:51;19.90;99.90
14014;DHT22;49110;52.584;13.408;2023-09-19T04:23:52;19.90;99.90
14014;DHT22;49110;52.584;13.408;2023-09-19T04:24:52;19.80;99.90
14014;DHT22;49110;52.584;13.408;2023-09-19T04:25:53;19.80;99.90
14014;DHT22;49110;52.584;13.408;2023-09-19T04:26:54;19.80;99.90
14014;DHT22;49110;52.584;13.408;2023-09-19T04:27:54;19.80;99.90
14014;DHT22;49110;52.584;13.408;2023-09-19T04:28:55;19.80;99.90
14014;DHT22;49110;52.584;13.408;2023-09-19T04:29:56;19.80;99.90
14014;DHT22;49110;52.584;13.408;2023-09-19T04:30:59;19.80;99.90
14014;DHT22;49110;52.584;13.408;2023-09-19T04:32:00;19.80;99.90
14014;DHT22;49110;52.584;13.408;2023-09-19T04:33:00;19.80;99.90
14014;DHT22;49110;52.584;13.408;2023-09-19T04:34:02;19.70;99.90
14014;DHT22;49110;52.584;13.408;2023-09-19T04:35:04;19.80;99.90
14014;DHT22;49110;52.584;13.408;2023-09-19T04:36:07;19.80;99.90
14014;DHT22;49110;52.584;13.408;2023-09-19T04:37:07;19.80;99.90
14014;DHT22;49110;52.584;13.408;2023-09-19T04:38:08;19.70;99.90
14014;DHT22;49110;52.584;13.408;2023-09-19T04:39:09;19.70;99.90
14014;DHT22;49110;52.584;13.408;2023-09-19T04:40:11;19.70;99.90
14014;DHT22;49110;52.584;13.408;2023-09-19T04:41:17;19.70;99.90
14014;DHT22;49110;52.584;13.408;2023-09-19T04:42:17;19.70;99.90
14014;DHT22;49110;52.584;13.408;2023-09-19T04:43:19;19.70;99.90
14014;DHT22;49110;52.584;13.408;2023-09-19T04:44:20;19.70;99.90
14014;DHT22;49110;52.584;13.408;2023-09-19T04:45:20;19.70;99.90
14014;DHT22;49110;52.584;13.408;2023-09-19T04:46:20;19.60;99.90
14014;DHT22;49110;52.584;13.408;2023-09-19T04:47:21;19.60;99.90
14014;DHT22;49110;52.584;13.408;2023-09-19T04:48:22;19.60;99.90
14014;DHT22;49110;52.584;13.408;2023-09-19T04:49:26;19.70;99.90
14014;DHT22;49110;52.584;13.408;2023-09-19T04:50:26;19.60;99.90
14014;DHT22;49110;52.584;13.408;2023-09-19T04:51:28;19.60;99.90
14014;DHT22;49110;52.584;13.408;2023-09-19T04:52:33;19.60;99.90
14014;DHT22;49110;52.584;13.408;2023-09-19T04:53:33;19.60;99.90
14014;DHT22;49110;52.584;13.408;2023-09-19T04:54:34;19.60;99.90
14014;DHT22;49110;52.584;13.408;2023-09-19T04:55:34;19.60;99.90
14014;DHT22;49110;52.584;13.408;2023-09-19T04:56:35;19.60;99.90
14014;DHT22;49110;52.584;13.408;2023-09-19T04:57:35;19.60;99.90
14014;DHT22;49110;52.584;13.408;2023-09-19T04:58:36;19.60;99.90
14014;DHT22;49110;52.584;13.408;2023-09-19T04:59:37;19.60;99.90
14014;DHT22;49110;52.584;13.408;2023-09-19T05:00:37;19.60;99.90
14014;DHT22;49110;52.584;13.408;2023-09-19T05:01:38;19.60;99.90
14014;DHT22;49110;52.584;13.408;2023-09-19T05:02:39;19.60;99.90
14014;DHT22;49110;52.584;13.408;2023-09-19T05:03:40;19.60;99.90
14014;DHT22;49110;52.584;13.408;2023-09-19T05:04:40;19.60;99.90
14014;DHT22;49110;52.584;13.408;2023-09-19T05:05:41;19.60;99.90
14014;DHT22;49110;52.584;13.408;2023-09-19T05:06:42;19.60;99.90
14014;DHT22;49110;52.584;13.408;2023-09-19T05:07:43;19.60;99.90
14014;DHT22;49110;52.584;13.408;2023-09-19T05:08:50;19.50;99.90
14014;DHT22;49110;52.584;13.408;2023-09-19T05:09:53;19.50;99.90
14014;DHT22;49110;52.584;13.408;2023-09-19T05:10:54;19.50;99.90
14014;DHT22;49110;52.584;13.408;2023-09-19T05:11:56;19.50;99.90
14014;DHT22;49110;52.584;13.408;2023-09-19T05:12:57;19.50;99.90
14014;DHT22;49110;52.584;13.408;2023-09-19T05:13:57;19.50;99.90
14014;DHT22;49110;52.584;13.408;2023-09-19T05:15:05;19.50;99.90
14014;DHT22;49110;52.584;13.408;2023-09-19T05:16:09;19.50;99.90
14014;DHT22;49110;52.584;13.408;2023-09-19T05:17:10;19.50;99.90
14014;DHT22;49110;52.584;13.408;2023-09-19T05:18:11;19.50;99.90
14014;DHT22;49110;52.584;13.408;2023-09-19T05:19:11;19.50;99.90
14014;DHT22;49110;52.584;13.408;2023-09-19T05:20:12;19.50;99.90
14014;DHT22;49110;52.584;13.408;2023-09-19T05:21:15;19.50;99.90
14014;DHT22;49110;52.584;13.408;2023-09-19T05:22:16;19.50;99.90
14014;DHT22;49110;52.584;13.408;2023-09-19T05:23:18;19.40;99.90
14014;DHT22;49110;52.584;13.408;2023-09-19T05:24:21;19.50;99.90
14014;DHT22;49110;52.584;13.408;2023-09-19T05:25:23;19.50;99.90
14014;DHT22;49110;52.584;13.408;2023-09-19T05:26:25;19.40;99.90
14014;DHT22;49110;52.584;13.408;2023-09-19T05:27:25;19.40;99.90
14014;DHT22;49110;52.584;13.408;2023-09-19T05:28:26;19.40;99.90
14014;DHT22;49110;52.584;13.408;2023-09-19T05:29:27;19.40;99.90
14014;DHT22;49110;52.584;13.408;2023-09-19T05:30:29;19.40;99.90
14014;DHT22;49110;52.584;13.408;2023-09-19T05:31:30;19.40;99.90
14014;DHT22;49110;52.584;13.408;2023-09-19T05:32:31;19.40;99.90
14014;DHT22;49110;52.584;13.408;2023-09-19T05:33:31;19.40;99.90
14014;DHT22;49110;52.584;13.408;2023-09-19T05:34:33;19.40;99.90
14014;DHT22;49110;52.584;13.408;2023-09-19T05:35:34;19.40;99.90
14014;DHT22;49110;52.584;13.408;2023-09-19T05:36:37;19.40;99.90
14014;DHT22;49110;52.584;13.408;2023-09-19T05:37:38;19.40;99.90
14014;DHT22;49110;52.584;13.408;2023-09-19T05:38:39;19.40;99.90
14014;DHT22;49110;52.584;13.408;2023-09-19T05:39:41;19.40;99.90
14014;DHT22;49110;52.584;13.408;2023-09-19T05:40:42;19.30;99.90
14014;DHT22;49110;52.584;13.408;2023-09-19T05:41:43;19.30;99.90
14014;DHT22;49110;52.584;13.408;2023-09-19T05:42:43;19.40;99.90
14014;DHT22;49110;52.584;13.408;2023-09-19T05:43:44;19.40;99.90
14014;DHT22;49110;52.584;13.408;2023-09-19T05:44:44;19.40;99.90
14014;DHT22;49110;52.584;13.408;2023-09-19T05:45:45;19.40;99.90
14014;DHT22;49110;52.584;13.408;2023-09-19T05:46:45;19.40;99.90
14014;DHT22;49110;52.584;13.408;2023-09-19T05:47:49;19.40;99.90
14014;DHT22;49110;52.584;13.408;2023-09-19T05:48:50;19.40;99.90
14014;DHT22;49110;52.584;13.408;2023-09-19T05:49:50;19.40;99.90
14014;DHT22;49110;52.584;13.408;2023-09-19T05:50:51;19.40;99.90
14014;DHT22;49110;52.584;13.408;2023-09-19T05:51:51;19.40;99.90
14014;DHT22;49110;52.584;13.408;2023-09-19T05:52:56;19.50;99.90
14014;DHT22;49110;52.584;13.408;2023-09-19T05:53:58;19.40;99.90
14014;DHT22;49110;52.584;13.408;2023-09-19T05:54:58;19.40;99.90
14014;DHT22;49110;52.584;13.408;2023-09-19T05:56:00;19.40;99.90
14014;DHT22;49110;52.584;13.408;2023-09-19T05:57:01;19.40;99.90
14014;DHT22;49110;52.584;13.408;2023-09-19T05:58:02;19.40;99.90
14014;DHT22;49110;52.584;13.408;2023-09-19T05:59:04;19.30;99.90
14014;DHT22;49110;52.584;13.408;2023-09-19T06:00:06;19.40;99.90
14014;DHT22;49110;52.584;13.408;2023-09-19T06:01:10;19.40;99.90
14014;DHT22;49110;52.584;13.408;2023-09-19T06:02:10;19.40;99.90
14014;DHT22;49110;52.584;13.408;2023-09-19T06:03:12;19.40;99.90
14014;DHT22;49110;52.584;13.408;2023-09-19T06:04:14;19.40;99.90
14014;DHT22;49110;52.584;13.408;2023-09-19T06:05:14;19.40;99.90
14014;DHT22;49110;52.584;13.408;2023-09-19T06:06:15;19.40;99.90
14014;DHT22;49110;52.584;13.408;2023-09-19T06:07:15;19.40;99.90
14014;DHT22;49110;52.584;13.408;2023-09-19T06:08:17;19.50;99.90
14014;DHT22;49110;52.584;13.408;2023-09-19T06:09:17;19.50;99.90
14014;DHT22;49110;52.584;13.408;2023-09-19T06:10:18;19.50;99.90
14014;DHT22;49110;52.584;13.408;2023-09-19T06:11:20;19.50;99.90
14014;DHT22;49110;52.584;13.408;2023-09-19T06:12:21;19.50;99.90
14014;DHT22;49110;52.584;13.408;2023-09-19T06:13:22;19.50;99.90
14014;DHT22;49110;52.584;13.408;2023-09-19T06:14:23;19.60;99.90
14014;DHT22;49110;52.584;13.408;2023-09-19T06:15:25;19.60;99.90
14014;DHT22;49110;52.584;13.408;2023-09-19T06:16:26;19.60;99.90
14014;DHT22;49110;52.584;13.408;2023-09-19T06:17:26;19.70;99.90
14014;DHT22;49110;52.584;13.408;2023-09-19T06:18:27;19.70;99.90
14014;DHT22;49110;52.584;13.408;2023-09-19T06:19:29;19.70;99.90
14014;DHT22;49110;52.584;13.408;2023-09-19T06:20:30;19.70;99.90
14014;DHT22;49110;52.584;13.408;2023-09-19T06:21:31;19.70;99.90
14014;DHT22;49110;52.584;13.408;2023-09-19T06:22:32;19.70;99.90
14014;DHT22;49110;52.584;13.408;2023-09-19T06:23:34;19.80;99.90
14014;DHT22;49110;52.584;13.408;2023-09-19T06:24:35;19.80;99.90
14014;DHT22;49110;52.584;13.408;2023-09-19T06:25:36;19.80;99.90
14014;DHT22;49110;52.584;13.408;2023-09-19T06:26:36;19.90;99.90
14014;DHT22;49110;52.584;13.408;2023-09-19T06:27:38;19.90;99.90
14014;DHT22;49110;52.584;13.408;2023-09-19T06:28:40;19.90;99.90
14014;DHT22;49110;52.584;13.408;2023-09-19T06:29:41;19.90;99.90
14014;DHT22;49110;52.584;13.408;2023-09-19T06:30:42;19.90;99.90
14014;DHT22;49110;52.584;13.408;2023-09-19T06:31:42;19.90;99.90